Time;durP1;ratioP1;P1;durP2;ratioP2;P2;SDS_P1;SDS_P2;PMS_P1;PMS_P2;Temp;Humidity;BMP_temperature;BMP_pressure;BME280_temperature;BME280_humidity;BME280_pressure;Samples;Min_cycle;Max_cycle;Signal;HPM_P1;HPM_P2
2021/08/15 00:07:06;;;;;;;9.63;4.28;;;17.90;99.90;;;;;;6673959;78;20640;-79
2021/08/15 00:17:07;;;;;;;12.25;4.57;;;17.80;99.90;;;;;;6715031;88;20206;-78
2021/08/15 00:27:07;;;;;;;13.03;5.00;;;18.10;99.90;;;;;;6711511;88;20191;-79
2021/08/15 00:37:08;;;;;;;11.30;4.57;;;18.00;99.90;;;;;;6706975;88;20768;-79
2021/08/15 00:47:08;;;;;;;11.93;4.37;;;17.70;99.90;;;;;;6702888;88;20226;-78
2021/08/15 00:57:09;;;;;;;11.23;4.50;;;17.50;99.90;;;;;;6706193;88;21067;-79
2021/08/15 01:07:09;;;;;;;10.77;4.37;;;17.20;99.90;;;;;;6698907;88;20190;-77
2021/08/15 01:17:10;;;;;;;11.85;4.53;;;17.00;99.90;;;;;;6713634;88;20620;-77
2021/08/15 01:27:11;;;;;;;12.95;4.60;;;16.80;99.90;;;;;;6707376;88;20221;-78
2021/08/15 01:37:11;;;;;;;12.80;4.18;;;16.80;99.90;;;;;;6700353;88;20350;-80
2021/08/15 01:47:12;;;;;;;10.57;4.15;;;16.70;99.90;;;;;;6702753;88;20190;-79
2021/08/15 01:57:12;;;;;;;9.60;4.40;;;16.70;99.90;;;;;;6708083;88;20327;-78
2021/08/15 02:07:13;;;;;;;10.02;4.20;;;16.60;99.90;;;;;;6711616;88;20734;-79
2021/08/15 02:17:13;;;;;;;11.95;4.28;;;16.50;99.90;;;;;;6715690;88;20215;-78
2021/08/15 02:27:14;;;;;;;10.10;4.05;;;16.50;99.90;;;;;;6711512;88;20198;-79
2021/08/15 02:37:14;;;;;;;13.15;4.10;;;16.50;99.90;;;;;;6716150;88;20737;-78
2021/08/15 02:47:15;;;;;;;13.18;4.60;;;16.60;99.90;;;;;;6703897;88;20183;-78
2021/08/15 02:57:16;;;;;;;11.43;4.20;;;16.60;99.90;;;;;;6713295;88;21040;-79
2021/08/15 03:07:17;;;;;;;10.60;4.30;;;16.50;99.90;;;;;;6708834;88;20190;-78
2021/08/15 03:17:18;;;;;;;12.65;3.97;;;16.40;99.90;;;;;;6700328;88;20202;-78
2021/08/15 03:27:18;;;;;;;12.77;4.30;;;16.30;99.90;;;;;;6711022;88;20948;-79
2021/08/15 03:37:19;;;;;;;9.57;4.47;;;16.20;99.90;;;;;;6713455;88;20211;-78
2021/08/15 03:47:19;;;;;;;9.85;4.25;;;16.30;99.90;;;;;;6714908;88;20732;-78
2021/08/15 03:57:20;;;;;;;12.05;4.75;;;16.30;99.90;;;;;;6708143;88;20203;-78
2021/08/15 04:07:20;;;;;;;9.60;4.10;;;16.30;99.90;;;;;;6701836;88;20277;-79
2021/08/15 04:17:21;;;;;;;13.62;4.75;;;16.20;99.90;;;;;;6719349;88;20601;-77
2021/08/15 04:27:21;;;;;;;12.37;5.03;;;16.00;99.90;;;;;;6716014;88;20201;-78
2021/08/15 04:37:22;;;;;;;11.45;5.07;;;15.90;99.90;;;;;;6715571;88;20251;-77
2021/08/15 04:47:22;;;;;;;10.07;5.03;;;15.90;99.90;;;;;;6715712;88;20212;-77
2021/08/15 04:57:23;;;;;;;10.50;4.80;;;15.90;99.90;;;;;;6709764;88;20204;-78
2021/08/15 05:07:23;;;;;;;11.82;4.97;;;15.90;99.90;;;;;;6705762;88;20332;-78
2021/08/15 05:17:24;;;;;;;12.50;5.12;;;16.00;99.90;;;;;;6707813;88;20233;-78
2021/08/15 05:27:24;;;;;;;11.55;4.80;;;16.10;99.90;;;;;;6713761;88;20187;-78
2021/08/15 05:37:25;;;;;;;10.60;4.97;;;16.30;99.90;;;;;;6712699;88;20208;-77
2021/08/15 05:47:25;;;;;;;13.18;4.93;;;16.60;99.90;;;;;;6709987;88;20190;-79
2021/08/15 05:57:26;;;;;;;12.32;4.70;;;16.90;99.90;;;;;;6709303;88;20257;-78
2021/08/15 06:07:26;;;;;;;10.40;4.40;;;17.20;99.90;;;;;;6706112;88;20207;-78
2021/08/15 06:17:27;;;;;;;9.75;4.45;;;17.60;99.90;;;;;;6698525;88;20310;-79
2021/08/15 06:27:28;;;;;;;9.60;4.12;;;18.00;99.90;;;;;;6704332;88;20185;-78
2021/08/15 06:37:28;;;;;;;10.30;4.50;;;18.20;99.90;;;;;;6704118;88;21001;-79
2021/08/15 06:47:29;;;;;;;9.45;3.95;;;18.50;99.90;;;;;;6702293;88;20604;-79
2021/08/15 06:57:29;;;;;;;10.30;3.78;;;19.20;99.90;;;;;;6707670;88;21039;-80
2021/08/15 07:07:30;;;;;;;9.73;3.90;;;19.60;99.90;;;;;;6707269;88;20194;-79
2021/08/15 07:17:31;;;;;;;10.55;3.50;;;19.80;99.90;;;;;;6730244;88;20508;-81
2021/08/15 07:27:33;;;;;;;9.27;2.97;;;20.30;99.90;;;;;;6727761;88;20876;-81
2021/08/15 07:37:34;;;;;;;8.27;3.30;;;21.00;99.90;;;;;;6729347;88;20185;-83
2021/08/15 07:47:34;;;;;;;7.68;3.22;;;21.50;99.90;;;;;;6718451;88;20651;-81
2021/08/15 07:57:35;;;;;;;8.77;3.10;;;21.50;99.90;;;;;;6727487;77;20202;-82
2021/08/15 08:07:36;;;;;;;7.20;2.97;;;22.10;99.90;;;;;;6730135;88;20307;-80
2021/08/15 08:17:36;;;;;;;5.20;2.78;;;22.80;99.90;;;;;;6728769;88;20201;-81
2021/08/15 08:27:37;;;;;;;7.47;2.85;;;23.60;99.90;;;;;;6734806;88;20192;-81
2021/08/15 08:37:38;;;;;;;8.05;2.80;;;23.80;99.90;;;;;;6733700;88;20193;-81
2021/08/15 08:47:38;;;;;;;6.70;2.60;;;24.70;99.90;;;;;;6740375;88;20209;-82
2021/08/15 08:57:39;;;;;;;6.12;2.65;;;25.00;99.90;;;;;;6735016;88;20181;-81
2021/08/15 09:07:42;;;;;;;6.67;2.77;;;26.40;99.90;;;;;;6731567;88;20177;-81
2021/08/15 09:17:43;;;;;;;6.33;2.67;;;25.90;99.90;;;;;;6734422;88;20197;-82
2021/08/15 09:27:45;;;;;;;5.03;2.60;;;26.60;99.90;;;;;;6733344;88;20568;-82
2021/08/15 09:37:46;;;;;;;4.72;2.40;;;26.50;99.90;;;;;;6734251;88;20218;-81
2021/08/15 09:47:47;;;;;;;6.62;3.20;;;26.60;99.90;;;;;;6732831;88;20213;-81
2021/08/15 09:57:47;;;;;;;5.95;3.00;;;27.80;99.90;;;;;;6714587;88;20222;-81
2021/08/15 10:07:48;;;;;;;9.45;3.10;;;28.70;99.90;;;;;;6715072;88;20328;-81
2021/08/15 10:17:52;;;;;;;6.55;2.80;;;30.20;99.20;;;;;;6717207;88;20224;-80
2021/08/15 10:27:52;;;;;;;4.57;1.73;;;29.80;97.50;;;;;;6716204;88;20185;-81
2021/08/15 10:37:54;;;;;;;2.45;1.27;;;29.60;94.90;;;;;;6711926;88;20198;-81
2021/08/15 10:48:12;;;;;;;4.45;1.58;;;32.20;91.10;;;;;;6716765;88;20243;-81
2021/08/15 10:58:39;;;;;;;3.80;1.90;;;31.80;89.40;;;;;;6716295;88;20605;-79
2021/08/15 11:08:58;;;;;;;4.60;2.20;;;30.30;90.90;;;;;;6717402;88;20189;-82
2021/08/15 11:19:08;;;;;;;2.08;1.15;;;30.10;92.40;;;;;;6712219;88;20222;-81
2021/08/15 11:29:09;;;;;;;3.17;1.30;;;30.20;90.00;;;;;;6714710;88;20405;-82
2021/08/15 11:39:10;;;;;;;5.23;2.30;;;30.80;87.60;;;;;;6716827;88;20201;-81
2021/08/15 11:49:10;;;;;;;6.00;2.07;;;30.80;91.30;;;;;;6716462;88;20538;-81
2021/08/15 11:59:16;;;;;;;2.55;1.40;;;32.30;88.00;;;;;;6712386;88;20219;-80
2021/08/15 12:09:25;;;;;;;4.53;1.30;;;32.60;79.90;;;;;;6720196;77;20212;-76
2021/08/15 12:19:31;;;;;;;2.53;1.40;;;32.30;77.90;;;;;;6729675;88;20616;-76
2021/08/15 12:29:43;;;;;;;3.47;1.65;;;32.20;79.30;;;;;;6729238;88;20246;-77
2021/08/15 12:39:46;;;;;;;4.35;1.65;;;33.90;75.50;;;;;;6721549;88;20712;-76
2021/08/15 12:49:47;;;;;;;3.25;1.50;;;33.80;74.80;;;;;;6722937;88;20290;-77
2021/08/15 12:59:47;;;;;;;3.20;1.40;;;33.00;75.10;;;;;;6721228;88;20779;-76
2021/08/15 13:09:48;;;;;;;3.53;1.65;;;33.00;74.60;;;;;;6734891;88;20302;-75
2021/08/15 13:19:49;;;;;;;3.87;1.80;;;33.60;72.60;;;;;;6738208;88;20237;-76
2021/08/15 13:29:50;;;;;;;4.32;1.40;;;33.80;71.30;;;;;;6739572;88;20620;-75
2021/08/15 13:39:58;;;;;;;3.53;1.60;;;33.80;70.20;;;;;;6730930;88;20251;-76
2021/08/15 13:49:58;;;;;;;2.90;1.40;;;33.40;70.30;;;;;;6720287;88;20317;-75
2021/08/15 13:59:59;;;;;;;2.35;1.50;;;33.60;70.40;;;;;;6722542;88;20647;-75
2021/08/15 14:09:59;;;;;;;3.15;1.40;;;33.20;71.20;;;;;;6723692;88;20252;-76
2021/08/15 14:20:02;;;;;;;4.28;1.30;;;32.70;70.30;;;;;;6732935;88;20204;-77
2021/08/15 14:30:03;;;;;;;3.67;1.70;;;32.40;70.70;;;;;;6729055;88;20291;-76
2021/08/15 14:40:05;;;;;;;3.28;1.60;;;32.10;72.60;;;;;;6731410;88;20466;-76
2021/08/15 14:50:06;;;;;;;5.62;1.75;;;32.40;71.80;;;;;;6733738;88;20242;-77
2021/08/15 15:00:08;;;;;;;3.87;1.83;;;32.90;71.60;;;;;;6736473;88;20207;-77
2021/08/15 15:10:08;;;;;;;3.33;1.65;;;33.50;71.50;;;;;;6728930;88;20398;-77
2021/08/15 15:20:14;;;;;;;4.60;1.90;;;33.40;71.30;;;;;;6725822;88;20246;-76
2021/08/15 15:30:15;;;;;;;6.72;1.90;;;33.40;70.80;;;;;;6727955;88;20651;-77
2021/08/15 15:40:16;;;;;;;4.68;2.08;;;32.30;70.80;;;;;;6726508;88;20202;-76
2021/08/15 15:50:16;;;;;;;;;;;32.30;72.00;;;;;;6739124;88;20196;-77
2021/08/15 16:00:18;;;;;;;5.22;2.10;;;32.20;70.80;;;;;;6730540;88;20066;-76
2021/08/15 16:10:18;;;;;;;4.37;2.17;;;31.00;71.80;;;;;;6730759;88;20702;-77
2021/08/15 16:20:20;;;;;;;6.23;2.90;;;30.40;73.80;;;;;;6725184;88;20498;-76
2021/08/15 16:30:20;;;;;;;5.35;2.00;;;30.70;74.40;;;;;;6723210;88;20193;-77
2021/08/15 16:40:21;;;;;;;5.90;2.08;;;30.20;75.30;;;;;;6731023;88;20195;-77
2021/08/15 16:50:22;;;;;;;3.70;1.80;;;30.10;75.40;;;;;;6729064;88;20321;-77
2021/08/15 17:00:22;;;;;;;10.88;4.10;;;30.00;75.40;;;;;;6727588;88;20364;-79
2021/08/15 17:10:24;;;;;;;224.45;135.32;;;29.50;78.40;;;;;;6724141;88;20201;-79
2021/08/15 17:20:25;;;;;;;;;;;29.10;79.80;;;;;;6737321;88;20249;-79
2021/08/15 17:30:25;;;;;;;8.07;4.70;;;28.70;82.40;;;;;;6738263;88;20064;-79
2021/08/15 17:40:27;;;;;;;31.17;17.50;;;28.70;85.70;;;;;;6727741;88;20267;-78
2021/08/15 17:50:27;;;;;;;6.37;4.05;;;28.30;85.30;;;;;;6730136;88;20184;-79
2021/08/15 18:00:28;;;;;;;4.65;2.80;;;27.90;87.20;;;;;;6740266;88;20216;-78
2021/08/15 18:10:28;;;;;;;8.43;3.00;;;27.50;88.20;;;;;;6731142;88;20197;-77
2021/08/15 18:20:29;;;;;;;7.95;3.58;;;27.20;90.20;;;;;;6737648;88;20676;-78
2021/08/15 18:30:30;;;;;;;7.62;3.10;;;27.00;91.40;;;;;;6733582;88;20209;-78
2021/08/15 18:40:31;;;;;;;7.72;2.92;;;26.80;91.70;;;;;;6734198;88;21141;-78
2021/08/15 18:50:32;;;;;;;5.78;2.75;;;26.40;93.30;;;;;;6746907;88;20213;-77
2021/08/15 19:00:33;;;;;;;6.68;2.20;;;26.00;97.30;;;;;;6737279;88;20215;-77
2021/08/15 19:10:34;;;;;;;10.07;2.67;;;25.60;98.60;;;;;;6734212;88;20219;-77
2021/08/15 19:20:36;;;;;;;4.70;2.40;;;25.20;99.90;;;;;;6736563;88;20600;-77
2021/08/15 19:30:38;;;;;;;5.78;2.37;;;24.90;99.90;;;;;;6733694;88;20216;-78
2021/08/15 19:40:39;;;;;;;4.60;2.05;;;24.70;99.90;;;;;;6734741;88;20330;-77
2021/08/15 19:50:40;;;;;;;6.00;1.45;;;24.50;99.90;;;;;;6733503;88;20208;-78
2021/08/15 20:00:40;;;;;;;4.32;1.77;;;24.40;99.90;;;;;;6736214;88;20195;-77
2021/08/15 20:10:41;;;;;;;5.78;1.80;;;24.30;99.90;;;;;;6735323;88;20201;-78
2021/08/15 20:20:43;;;;;;;6.95;2.22;;;24.20;99.90;;;;;;6738108;88;20251;-77
2021/08/15 20:30:44;;;;;;;3.62;1.62;;;24.00;99.90;;;;;;6735214;88;20195;-77
2021/08/15 20:40:47;;;;;;;3.87;1.75;;;23.70;99.90;;;;;;6735565;88;20596;-76
2021/08/15 20:50:48;;;;;;;4.83;1.90;;;23.40;99.90;;;;;;6735576;88;20204;-77
2021/08/15 21:00:48;;;;;;;4.07;2.17;;;23.30;99.90;;;;;;6733828;88;20649;-77
2021/08/15 21:10:50;;;;;;;4.87;1.92;;;23.20;99.90;;;;;;6730669;88;20727;-77
2021/08/15 21:20:50;;;;;;;7.25;1.90;;;23.00;99.90;;;;;;6733729;88;20200;-76
2021/08/15 21:30:51;;;;;;;5.28;1.98;;;23.00;99.90;;;;;;6729505;88;20347;-76
2021/08/15 21:40:51;;;;;;;5.30;2.00;;;23.10;99.90;;;;;;6730571;88;20189;-77
2021/08/15 21:50:52;;;;;;;6.28;2.35;;;22.80;99.90;;;;;;6732677;88;20226;-76
2021/08/15 22:00:52;;;;;;;8.10;2.40;;;22.70;99.90;;;;;;6728539;88;20344;-77
2021/08/15 22:10:53;;;;;;;7.32;3.33;;;22.40;99.90;;;;;;6728410;88;21098;-77
2021/08/15 22:20:53;;;;;;;7.50;3.50;;;22.20;99.90;;;;;;6732488;88;20207;-77
2021/08/15 22:30:54;;;;;;;10.23;3.53;;;22.00;99.90;;;;;;6730805;88;20197;-78
2021/08/15 22:40:55;;;;;;;8.03;3.53;;;21.80;99.90;;;;;;6733448;88;20342;-78
2021/08/15 22:50:55;;;;;;;10.70;3.83;;;21.60;99.90;;;;;;6736551;88;20194;-78
2021/08/15 23:00:56;;;;;;;8.60;3.80;;;21.40;99.90;;;;;;6732004;88;20636;-77
2021/08/15 23:10:56;;;;;;;11.63;4.32;;;21.20;99.90;;;;;;6738077;88;20202;-77
2021/08/15 23:20:57;;;;;;;10.63;3.85;;;21.00;99.90;;;;;;6740208;88;20197;-77
2021/08/15 23:30:58;;;;;;;8.97;3.73;;;20.80;99.90;;;;;;6731127;88;20734;-77
2021/08/15 23:40:58;;;;;;;16.83;4.45;;;20.80;99.90;;;;;;6727213;88;20935;-77
2021/08/15 23:50:59;;;;;;;9.30;3.90;;;20.80;99.90;;;;;;6727693;88;20188;-77
